sensor_id;sensor_type;location;lat;lon;timestamp;P1;durP1;ratioP1;P2;durP2;ratioP2
2408;SDS011;8463;48.094;7.970;2022-12-11T00:01:13;18.77;;;12.40;;
2408;SDS011;8463;48.094;7.970;2022-12-11T00:03:41;16.17;;;11.17;;
2408;SDS011;8463;48.094;7.970;2022-12-11T00:06:07;17.93;;;11.03;;
2408;SDS011;8463;48.094;7.970;2022-12-11T00:08:35;20.40;;;12.37;;
2408;SDS011;8463;48.094;7.970;2022-12-11T00:11:01;16.90;;;11.70;;
2408;SDS011;8463;48.094;7.970;2022-12-11T00:13:27;16.00;;;12.20;;
2408;SDS011;8463;48.094;7.970;2022-12-11T00:15:55;13.87;;;11.00;;
2408;SDS011;8463;48.094;7.970;2022-12-11T00:18:22;20.70;;;11.90;;
2408;SDS011;8463;48.094;7.970;2022-12-11T00:20:50;15.27;;;9.10;;
2408;SDS011;8463;48.094;7.970;2022-12-11T00:23:16;12.73;;;9.60;;
2408;SDS011;8463;48.094;7.970;2022-12-11T00:25:42;17.17;;;10.33;;
2408;SDS011;8463;48.094;7.970;2022-12-11T00:28:09;13.97;;;9.13;;
2408;SDS011;8463;48.094;7.970;2022-12-11T00:30:39;14.13;;;10.03;;
2408;SDS011;8463;48.094;7.970;2022-12-11T00:33:06;12.87;;;9.20;;
2408;SDS011;8463;48.094;7.970;2022-12-11T00:35:32;12.40;;;8.17;;
2408;SDS011;8463;48.094;7.970;2022-12-11T00:37:58;11.13;;;8.67;;
2408;SDS011;8463;48.094;7.970;2022-12-11T00:40:23;11.70;;;8.27;;
2408;SDS011;8463;48.094;7.970;2022-12-11T00:42:49;13.20;;;8.77;;
2408;SDS011;8463;48.094;7.970;2022-12-11T00:45:14;13.90;;;8.73;;
2408;SDS011;8463;48.094;7.970;2022-12-11T00:47:40;15.40;;;9.57;;
2408;SDS011;8463;48.094;7.970;2022-12-11T00:50:06;12.40;;;8.87;;
2408;SDS011;8463;48.094;7.970;2022-12-11T00:52:32;12.73;;;7.83;;
2408;SDS011;8463;48.094;7.970;2022-12-11T00:54:58;17.47;;;10.03;;
2408;SDS011;8463;48.094;7.970;2022-12-11T00:57:26;11.77;;;8.67;;
2408;SDS011;8463;48.094;7.970;2022-12-11T00:59:52;16.17;;;10.10;;
2408;SDS011;8463;48.094;7.970;2022-12-11T01:02:17;14.13;;;9.97;;
2408;SDS011;8463;48.094;7.970;2022-12-11T01:04:43;16.27;;;9.60;;
2408;SDS011;8463;48.094;7.970;2022-12-11T01:07:08;12.70;;;9.80;;
2408;SDS011;8463;48.094;7.970;2022-12-11T01:09:34;12.90;;;9.37;;
2408;SDS011;8463;48.094;7.970;2022-12-11T01:12:18;15.30;;;9.60;;
2408;SDS011;8463;48.094;7.970;2022-12-11T01:14:44;12.53;;;9.60;;
2408;SDS011;8463;48.094;7.970;2022-12-11T01:17:09;9.80;;;7.10;;
2408;SDS011;8463;48.094;7.970;2022-12-11T01:19:35;15.50;;;8.37;;
2408;SDS011;8463;48.094;7.970;2022-12-11T01:22:01;11.73;;;9.17;;
2408;SDS011;8463;48.094;7.970;2022-12-11T01:24:29;13.93;;;8.40;;
2408;SDS011;8463;48.094;7.970;2022-12-11T01:26:55;13.63;;;9.60;;
2408;SDS011;8463;48.094;7.970;2022-12-11T01:29:20;12.13;;;8.57;;
2408;SDS011;8463;48.094;7.970;2022-12-11T01:31:46;16.70;;;11.20;;
2408;SDS011;8463;48.094;7.970;2022-12-11T01:34:11;12.90;;;10.17;;
2408;SDS011;8463;48.094;7.970;2022-12-11T01:36:37;15.23;;;10.53;;
2408;SDS011;8463;48.094;7.970;2022-12-11T01:39:03;12.73;;;8.93;;
2408;SDS011;8463;48.094;7.970;2022-12-11T01:41:28;12.17;;;7.93;;
2408;SDS011;8463;48.094;7.970;2022-12-11T01:46:28;13.57;;;9.30;;
2408;SDS011;8463;48.094;7.970;2022-12-11T01:48:54;9.53;;;7.60;;
2408;SDS011;8463;48.094;7.970;2022-12-11T01:51:20;11.77;;;9.40;;
2408;SDS011;8463;48.094;7.970;2022-12-11T01:53:48;12.90;;;8.90;;
2408;SDS011;8463;48.094;7.970;2022-12-11T01:56:17;11.67;;;8.80;;
2408;SDS011;8463;48.094;7.970;2022-12-11T01:58:48;10.77;;;8.27;;
2408;SDS011;8463;48.094;7.970;2022-12-11T02:01:21;16.50;;;9.73;;
2408;SDS011;8463;48.094;7.970;2022-12-11T02:03:54;14.40;;;10.07;;
2408;SDS011;8463;48.094;7.970;2022-12-11T02:06:31;14.20;;;10.43;;
2408;SDS011;8463;48.094;7.970;2022-12-11T02:09:02;11.47;;;8.77;;
2408;SDS011;8463;48.094;7.970;2022-12-11T02:11:33;10.03;;;7.43;;
2408;SDS011;8463;48.094;7.970;2022-12-11T02:14:22;12.87;;;8.67;;
2408;SDS011;8463;48.094;7.970;2022-12-11T02:17:06;13.03;;;9.67;;
2408;SDS011;8463;48.094;7.970;2022-12-11T02:28:45;14.17;;;8.73;;
2408;SDS011;8463;48.094;7.970;2022-12-11T02:36:20;14.67;;;9.40;;
2408;SDS011;8463;48.094;7.970;2022-12-11T02:38:49;20.00;;;11.17;;
2408;SDS011;8463;48.094;7.970;2022-12-11T02:41:18;12.83;;;8.80;;
2408;SDS011;8463;48.094;7.970;2022-12-11T02:43:45;14.17;;;9.57;;
2408;SDS011;8463;48.094;7.970;2022-12-11T02:46:13;15.87;;;10.30;;
2408;SDS011;8463;48.094;7.970;2022-12-11T02:48:40;12.13;;;10.23;;
2408;SDS011;8463;48.094;7.970;2022-12-11T02:51:07;13.13;;;9.83;;
2408;SDS011;8463;48.094;7.970;2022-12-11T02:53:34;13.40;;;8.13;;
2408;SDS011;8463;48.094;7.970;2022-12-11T02:56:12;12.23;;;8.23;;
2408;SDS011;8463;48.094;7.970;2022-12-11T02:58:51;11.20;;;8.40;;
2408;SDS011;8463;48.094;7.970;2022-12-11T03:01:20;11.93;;;7.23;;
2408;SDS011;8463;48.094;7.970;2022-12-11T03:03:46;18.60;;;9.80;;
2408;SDS011;8463;48.094;7.970;2022-12-11T03:06:12;14.77;;;9.63;;
2408;SDS011;8463;48.094;7.970;2022-12-11T03:08:44;13.70;;;8.93;;
2408;SDS011;8463;48.094;7.970;2022-12-11T03:11:10;14.97;;;9.30;;
2408;SDS011;8463;48.094;7.970;2022-12-11T03:13:37;14.30;;;9.73;;
2408;SDS011;8463;48.094;7.970;2022-12-11T03:16:11;14.47;;;9.63;;
2408;SDS011;8463;48.094;7.970;2022-12-11T03:21:52;14.13;;;10.23;;
2408;SDS011;8463;48.094;7.970;2022-12-11T03:24:25;11.30;;;7.90;;
2408;SDS011;8463;48.094;7.970;2022-12-11T03:27:26;12.03;;;8.63;;
2408;SDS011;8463;48.094;7.970;2022-12-11T03:29:58;12.20;;;9.03;;
2408;SDS011;8463;48.094;7.970;2022-12-11T03:32:28;13.60;;;9.07;;
2408;SDS011;8463;48.094;7.970;2022-12-11T03:35:25;15.93;;;9.40;;
2408;SDS011;8463;48.094;7.970;2022-12-11T03:38:03;16.33;;;8.30;;
2408;SDS011;8463;48.094;7.970;2022-12-11T03:40:35;13.40;;;9.77;;
2408;SDS011;8463;48.094;7.970;2022-12-11T03:43:03;14.73;;;9.27;;
2408;SDS011;8463;48.094;7.970;2022-12-11T03:45:30;12.33;;;8.10;;
2408;SDS011;8463;48.094;7.970;2022-12-11T03:47:57;14.50;;;8.53;;
2408;SDS011;8463;48.094;7.970;2022-12-11T03:50:24;13.47;;;9.13;;
2408;SDS011;8463;48.094;7.970;2022-12-11T03:52:54;17.80;;;9.50;;
2408;SDS011;8463;48.094;7.970;2022-12-11T03:55:21;12.00;;;8.97;;
2408;SDS011;8463;48.094;7.970;2022-12-11T03:57:48;16.87;;;10.10;;
2408;SDS011;8463;48.094;7.970;2022-12-11T04:00:14;14.53;;;9.70;;
2408;SDS011;8463;48.094;7.970;2022-12-11T04:02:43;14.43;;;10.33;;
2408;SDS011;8463;48.094;7.970;2022-12-11T04:05:29;17.70;;;11.50;;
2408;SDS011;8463;48.094;7.970;2022-12-11T04:07:55;19.97;;;11.30;;
2408;SDS011;8463;48.094;7.970;2022-12-11T04:10:20;18.07;;;11.23;;
2408;SDS011;8463;48.094;7.970;2022-12-11T04:12:46;20.50;;;12.73;;
2408;SDS011;8463;48.094;7.970;2022-12-11T04:15:12;25.60;;;11.90;;
2408;SDS011;8463;48.094;7.970;2022-12-11T04:17:37;20.27;;;12.70;;
2408;SDS011;8463;48.094;7.970;2022-12-11T04:20:21;15.43;;;10.70;;
2408;SDS011;8463;48.094;7.970;2022-12-11T04:23:08;20.67;;;11.82;;
2408;SDS011;8463;48.094;7.970;2022-12-11T04:26:14;18.23;;;10.50;;
2408;SDS011;8463;48.094;7.970;2022-12-11T04:28:42;16.80;;;11.93;;
2408;SDS011;8463;48.094;7.970;2022-12-11T04:31:12;18.60;;;11.27;;
2408;SDS011;8463;48.094;7.970;2022-12-11T04:33:42;16.58;;;9.60;;
2408;SDS011;8463;48.094;7.970;2022-12-11T04:36:08;19.50;;;11.30;;
2408;SDS011;8463;48.094;7.970;2022-12-11T04:38:36;21.17;;;13.07;;
2408;SDS011;8463;48.094;7.970;2022-12-11T04:41:03;20.33;;;11.53;;
2408;SDS011;8463;48.094;7.970;2022-12-11T04:43:30;23.48;;;11.70;;
2408;SDS011;8463;48.094;7.970;2022-12-11T04:46:00;24.33;;;12.80;;
2408;SDS011;8463;48.094;7.970;2022-12-11T04:48:31;24.87;;;11.80;;
2408;SDS011;8463;48.094;7.970;2022-12-11T04:50:57;25.83;;;13.60;;
2408;SDS011;8463;48.094;7.970;2022-12-11T04:53:23;19.80;;;13.00;;
2408;SDS011;8463;48.094;7.970;2022-12-11T04:55:52;20.00;;;11.33;;
2408;SDS011;8463;48.094;7.970;2022-12-11T04:58:18;19.57;;;12.50;;
2408;SDS011;8463;48.094;7.970;2022-12-11T05:00:43;21.40;;;12.13;;
2408;SDS011;8463;48.094;7.970;2022-12-11T05:03:12;18.33;;;10.63;;
2408;SDS011;8463;48.094;7.970;2022-12-11T05:05:39;14.83;;;11.07;;
2408;SDS011;8463;48.094;7.970;2022-12-11T05:08:05;16.07;;;9.30;;
2408;SDS011;8463;48.094;7.970;2022-12-11T05:10:33;19.37;;;11.00;;
2408;SDS011;8463;48.094;7.970;2022-12-11T05:12:58;15.57;;;9.83;;
2408;SDS011;8463;48.094;7.970;2022-12-11T05:15:24;21.23;;;12.77;;
2408;SDS011;8463;48.094;7.970;2022-12-11T05:17:49;16.93;;;10.77;;
2408;SDS011;8463;48.094;7.970;2022-12-11T05:20:15;16.50;;;10.67;;
2408;SDS011;8463;48.094;7.970;2022-12-11T05:22:41;18.10;;;10.47;;
2408;SDS011;8463;48.094;7.970;2022-12-11T05:25:06;15.83;;;9.13;;
2408;SDS011;8463;48.094;7.970;2022-12-11T05:27:32;15.23;;;9.20;;
2408;SDS011;8463;48.094;7.970;2022-12-11T05:29:58;19.13;;;11.00;;
2408;SDS011;8463;48.094;7.970;2022-12-11T05:32:23;18.20;;;11.20;;
2408;SDS011;8463;48.094;7.970;2022-12-11T05:34:49;18.70;;;11.40;;
2408;SDS011;8463;48.094;7.970;2022-12-11T05:37:15;14.20;;;10.77;;
2408;SDS011;8463;48.094;7.970;2022-12-11T05:39:40;16.97;;;12.03;;
2408;SDS011;8463;48.094;7.970;2022-12-11T05:42:06;18.07;;;11.17;;
2408;SDS011;8463;48.094;7.970;2022-12-11T05:44:32;15.80;;;11.10;;
2408;SDS011;8463;48.094;7.970;2022-12-11T05:46:58;17.70;;;11.17;;
2408;SDS011;8463;48.094;7.970;2022-12-11T05:49:23;15.60;;;11.50;;
2408;SDS011;8463;48.094;7.970;2022-12-11T05:51:49;17.00;;;10.60;;
2408;SDS011;8463;48.094;7.970;2022-12-11T05:54:14;18.57;;;12.10;;
2408;SDS011;8463;48.094;7.970;2022-12-11T05:56:40;20.03;;;11.73;;
2408;SDS011;8463;48.094;7.970;2022-12-11T05:59:06;19.33;;;10.90;;
2408;SDS011;8463;48.094;7.970;2022-12-11T06:01:41;15.67;;;10.00;;
2408;SDS011;8463;48.094;7.970;2022-12-11T06:04:07;16.10;;;10.47;;
2408;SDS011;8463;48.094;7.970;2022-12-11T06:06:34;13.30;;;10.00;;
2408;SDS011;8463;48.094;7.970;2022-12-11T06:09:04;11.50;;;8.90;;
2408;SDS011;8463;48.094;7.970;2022-12-11T06:11:31;10.63;;;8.10;;
2408;SDS011;8463;48.094;7.970;2022-12-11T06:13:57;12.83;;;9.10;;
2408;SDS011;8463;48.094;7.970;2022-12-11T06:16:23;8.63;;;6.90;;
2408;SDS011;8463;48.094;7.970;2022-12-11T06:18:49;13.23;;;8.37;;
2408;SDS011;8463;48.094;7.970;2022-12-11T06:23:42;13.63;;;9.20;;
2408;SDS011;8463;48.094;7.970;2022-12-11T06:26:09;11.77;;;8.93;;
2408;SDS011;8463;48.094;7.970;2022-12-11T06:28:38;15.67;;;9.53;;
2408;SDS011;8463;48.094;7.970;2022-12-11T06:31:04;12.07;;;8.20;;
2408;SDS011;8463;48.094;7.970;2022-12-11T06:33:30;8.67;;;6.30;;
2408;SDS011;8463;48.094;7.970;2022-12-11T06:35:56;9.60;;;6.20;;
2408;SDS011;8463;48.094;7.970;2022-12-11T06:38:32;9.50;;;6.33;;
2408;SDS011;8463;48.094;7.970;2022-12-11T06:40:58;7.20;;;6.00;;
2408;SDS011;8463;48.094;7.970;2022-12-11T06:43:25;11.00;;;7.57;;
2408;SDS011;8463;48.094;7.970;2022-12-11T06:45:51;9.83;;;7.33;;
2408;SDS011;8463;48.094;7.970;2022-12-11T06:48:17;10.50;;;8.80;;
2408;SDS011;8463;48.094;7.970;2022-12-11T06:50:44;12.07;;;8.20;;
2408;SDS011;8463;48.094;7.970;2022-12-11T06:53:10;11.80;;;8.13;;
2408;SDS011;8463;48.094;7.970;2022-12-11T06:55:39;10.40;;;7.77;;
2408;SDS011;8463;48.094;7.970;2022-12-11T06:58:05;12.33;;;7.70;;
2408;SDS011;8463;48.094;7.970;2022-12-11T07:00:33;9.97;;;7.43;;
2408;SDS011;8463;48.094;7.970;2022-12-11T07:02:59;12.30;;;9.20;;
2408;SDS011;8463;48.094;7.970;2022-12-11T07:05:25;11.10;;;8.03;;
2408;SDS011;8463;48.094;7.970;2022-12-11T07:07:54;13.00;;;8.43;;
2408;SDS011;8463;48.094;7.970;2022-12-11T07:10:20;10.85;;;8.93;;
2408;SDS011;8463;48.094;7.970;2022-12-11T07:12:46;10.43;;;7.20;;
2408;SDS011;8463;48.094;7.970;2022-12-11T07:15:12;12.50;;;8.13;;
2408;SDS011;8463;48.094;7.970;2022-12-11T07:17:38;13.33;;;7.80;;
2408;SDS011;8463;48.094;7.970;2022-12-11T07:20:04;14.50;;;8.63;;
2408;SDS011;8463;48.094;7.970;2022-12-11T07:22:33;18.90;;;13.37;;
2408;SDS011;8463;48.094;7.970;2022-12-11T07:24:59;11.13;;;6.70;;
2408;SDS011;8463;48.094;7.970;2022-12-11T07:27:24;12.63;;;7.30;;
2408;SDS011;8463;48.094;7.970;2022-12-11T07:29:50;9.73;;;6.77;;
2408;SDS011;8463;48.094;7.970;2022-12-11T07:32:16;11.20;;;7.30;;
2408;SDS011;8463;48.094;7.970;2022-12-11T07:34:41;9.03;;;8.07;;
2408;SDS011;8463;48.094;7.970;2022-12-11T07:37:07;12.13;;;9.10;;
2408;SDS011;8463;48.094;7.970;2022-12-11T07:39:34;9.93;;;8.60;;
2408;SDS011;8463;48.094;7.970;2022-12-11T07:42:00;8.80;;;7.53;;
2408;SDS011;8463;48.094;7.970;2022-12-11T07:44:26;10.77;;;6.77;;
2408;SDS011;8463;48.094;7.970;2022-12-11T07:46:51;12.67;;;7.57;;
2408;SDS011;8463;48.094;7.970;2022-12-11T07:49:17;11.67;;;7.00;;
2408;SDS011;8463;48.094;7.970;2022-12-11T07:51:42;7.87;;;6.33;;
2408;SDS011;8463;48.094;7.970;2022-12-11T07:54:12;7.73;;;7.03;;
2408;SDS011;8463;48.094;7.970;2022-12-11T07:56:44;7.60;;;6.63;;
2408;SDS011;8463;48.094;7.970;2022-12-11T07:59:10;7.25;;;5.70;;
2408;SDS011;8463;48.094;7.970;2022-12-11T08:01:36;13.47;;;6.73;;
2408;SDS011;8463;48.094;7.970;2022-12-11T08:04:03;9.40;;;6.50;;
2408;SDS011;8463;48.094;7.970;2022-12-11T08:06:31;13.70;;;9.32;;
2408;SDS011;8463;48.094;7.970;2022-12-11T08:08:59;20.23;;;11.75;;
2408;SDS011;8463;48.094;7.970;2022-12-11T08:11:26;43.03;;;18.57;;
2408;SDS011;8463;48.094;7.970;2022-12-11T08:13:53;14.17;;;10.60;;
2408;SDS011;8463;48.094;7.970;2022-12-11T08:16:19;16.27;;;9.52;;
2408;SDS011;8463;48.094;7.970;2022-12-11T08:18:45;18.10;;;11.03;;
2408;SDS011;8463;48.094;7.970;2022-12-11T08:21:19;21.90;;;13.67;;
2408;SDS011;8463;48.094;7.970;2022-12-11T08:23:46;17.50;;;12.43;;
2408;SDS011;8463;48.094;7.970;2022-12-11T08:26:13;17.65;;;13.00;;
2408;SDS011;8463;48.094;7.970;2022-12-11T08:28:42;21.35;;;14.10;;
2408;SDS011;8463;48.094;7.970;2022-12-11T08:31:08;20.63;;;13.07;;
2408;SDS011;8463;48.094;7.970;2022-12-11T08:33:35;25.43;;;13.17;;
2408;SDS011;8463;48.094;7.970;2022-12-11T08:36:06;23.67;;;13.05;;
2408;SDS011;8463;48.094;7.970;2022-12-11T08:38:33;24.33;;;13.75;;
2408;SDS011;8463;48.094;7.970;2022-12-11T08:41:20;26.30;;;13.57;;
2408;SDS011;8463;48.094;7.970;2022-12-11T08:43:47;24.02;;;12.85;;
2408;SDS011;8463;48.094;7.970;2022-12-11T08:46:13;20.63;;;13.60;;
2408;SDS011;8463;48.094;7.970;2022-12-11T08:48:39;22.63;;;13.60;;
2408;SDS011;8463;48.094;7.970;2022-12-11T08:51:06;24.90;;;14.10;;
2408;SDS011;8463;48.094;7.970;2022-12-11T08:53:34;24.97;;;15.07;;
2408;SDS011;8463;48.094;7.970;2022-12-11T08:56:01;18.67;;;12.40;;
2408;SDS011;8463;48.094;7.970;2022-12-11T08:58:29;29.40;;;13.98;;
2408;SDS011;8463;48.094;7.970;2022-12-11T09:00:55;24.50;;;13.13;;
2408;SDS011;8463;48.094;7.970;2022-12-11T09:03:21;20.45;;;13.70;;
2408;SDS011;8463;48.094;7.970;2022-12-11T09:05:46;23.43;;;12.77;;
2408;SDS011;8463;48.094;7.970;2022-12-11T09:08:12;21.50;;;11.13;;
2408;SDS011;8463;48.094;7.970;2022-12-11T09:10:38;21.83;;;13.80;;
2408;SDS011;8463;48.094;7.970;2022-12-11T09:13:03;22.53;;;12.47;;
2408;SDS011;8463;48.094;7.970;2022-12-11T09:15:29;17.80;;;10.47;;
2408;SDS011;8463;48.094;7.970;2022-12-11T09:17:54;21.93;;;12.33;;
2408;SDS011;8463;48.094;7.970;2022-12-11T09:20:20;15.10;;;9.00;;
2408;SDS011;8463;48.094;7.970;2022-12-11T09:22:46;20.57;;;12.50;;
2408;SDS011;8463;48.094;7.970;2022-12-11T09:25:11;16.50;;;10.80;;
2408;SDS011;8463;48.094;7.970;2022-12-11T09:27:37;14.77;;;10.50;;
2408;SDS011;8463;48.094;7.970;2022-12-11T09:30:03;15.60;;;9.83;;
2408;SDS011;8463;48.094;7.970;2022-12-11T09:32:29;14.57;;;9.97;;
2408;SDS011;8463;48.094;7.970;2022-12-11T09:34:56;18.33;;;10.57;;
2408;SDS011;8463;48.094;7.970;2022-12-11T09:37:21;12.60;;;8.00;;
2408;SDS011;8463;48.094;7.970;2022-12-11T09:39:47;16.00;;;9.77;;
2408;SDS011;8463;48.094;7.970;2022-12-11T09:44:53;21.97;;;11.57;;
2408;SDS011;8463;48.094;7.970;2022-12-11T09:47:35;18.48;;;10.23;;
2408;SDS011;8463;48.094;7.970;2022-12-11T09:52:36;12.43;;;10.17;;
2408;SDS011;8463;48.094;7.970;2022-12-11T09:55:55;17.43;;;13.83;;
2408;SDS011;8463;48.094;7.970;2022-12-11T09:58:23;16.93;;;12.57;;
2408;SDS011;8463;48.094;7.970;2022-12-11T10:13:07;29.30;;;20.80;;
2408;SDS011;8463;48.094;7.970;2022-12-11T10:18:29;13.00;;;9.83;;
2408;SDS011;8463;48.094;7.970;2022-12-11T10:20:56;15.67;;;10.30;;
2408;SDS011;8463;48.094;7.970;2022-12-11T10:23:59;15.60;;;10.70;;
2408;SDS011;8463;48.094;7.970;2022-12-11T10:26:22;21.10;;;10.83;;
2408;SDS011;8463;48.094;7.970;2022-12-11T10:28:48;16.80;;;10.87;;
2408;SDS011;8463;48.094;7.970;2022-12-11T10:36:06;20.00;;;13.00;;
2408;SDS011;8463;48.094;7.970;2022-12-11T10:38:35;12.17;;;9.07;;
2408;SDS011;8463;48.094;7.970;2022-12-11T10:41:16;13.97;;;11.30;;
2408;SDS011;8463;48.094;7.970;2022-12-11T10:43:45;14.47;;;11.13;;
2408;SDS011;8463;48.094;7.970;2022-12-11T10:46:17;14.43;;;9.70;;
2408;SDS011;8463;48.094;7.970;2022-12-11T10:48:45;18.10;;;11.93;;
2408;SDS011;8463;48.094;7.970;2022-12-11T10:51:14;16.38;;;10.80;;
2408;SDS011;8463;48.094;7.970;2022-12-11T10:53:40;12.67;;;9.83;;
2408;SDS011;8463;48.094;7.970;2022-12-11T10:56:07;18.90;;;10.87;;
2408;SDS011;8463;48.094;7.970;2022-12-11T10:58:33;17.13;;;11.45;;
2408;SDS011;8463;48.094;7.970;2022-12-11T11:03:30;17.80;;;9.87;;
2408;SDS011;8463;48.094;7.970;2022-12-11T11:06:16;18.60;;;11.10;;
2408;SDS011;8463;48.094;7.970;2022-12-11T11:08:45;14.10;;;10.40;;
2408;SDS011;8463;48.094;7.970;2022-12-11T11:13:46;17.27;;;10.23;;
2408;SDS011;8463;48.094;7.970;2022-12-11T11:16:13;16.30;;;11.77;;
2408;SDS011;8463;48.094;7.970;2022-12-11T11:18:41;13.17;;;9.47;;
2408;SDS011;8463;48.094;7.970;2022-12-11T11:21:18;16.13;;;10.77;;
2408;SDS011;8463;48.094;7.970;2022-12-11T11:23:49;14.83;;;9.77;;
2408;SDS011;8463;48.094;7.970;2022-12-11T11:26:16;14.10;;;10.00;;
2408;SDS011;8463;48.094;7.970;2022-12-11T11:29:01;14.43;;;9.63;;
2408;SDS011;8463;48.094;7.970;2022-12-11T11:31:47;15.03;;;9.27;;
2408;SDS011;8463;48.094;7.970;2022-12-11T11:34:13;13.37;;;8.37;;
2408;SDS011;8463;48.094;7.970;2022-12-11T11:36:45;15.23;;;9.73;;
2408;SDS011;8463;48.094;7.970;2022-12-11T11:39:28;14.70;;;10.53;;
2408;SDS011;8463;48.094;7.970;2022-12-11T11:42:06;18.47;;;11.00;;
2408;SDS011;8463;48.094;7.970;2022-12-11T11:44:59;15.37;;;11.57;;
2408;SDS011;8463;48.094;7.970;2022-12-11T11:47:30;19.03;;;10.23;;
2408;SDS011;8463;48.094;7.970;2022-12-11T11:50:03;12.17;;;9.87;;
2408;SDS011;8463;48.094;7.970;2022-12-11T11:52:49;16.17;;;10.47;;
2408;SDS011;8463;48.094;7.970;2022-12-11T11:55:24;17.43;;;12.40;;
2408;SDS011;8463;48.094;7.970;2022-12-11T11:58:20;14.97;;;10.80;;
2408;SDS011;8463;48.094;7.970;2022-12-11T12:00:52;16.63;;;11.13;;
2408;SDS011;8463;48.094;7.970;2022-12-11T12:03:18;17.30;;;10.93;;
2408;SDS011;8463;48.094;7.970;2022-12-11T12:14:23;17.10;;;10.50;;
2408;SDS011;8463;48.094;7.970;2022-12-11T12:17:03;18.00;;;11.50;;
2408;SDS011;8463;48.094;7.970;2022-12-11T12:19:48;21.83;;;13.23;;
2408;SDS011;8463;48.094;7.970;2022-12-11T12:25:28;24.10;;;12.30;;
2408;SDS011;8463;48.094;7.970;2022-12-11T12:28:09;14.83;;;10.83;;
2408;SDS011;8463;48.094;7.970;2022-12-11T12:33:20;14.47;;;11.60;;
2408;SDS011;8463;48.094;7.970;2022-12-11T12:38:58;18.63;;;11.47;;
2408;SDS011;8463;48.094;7.970;2022-12-11T12:44:24;20.60;;;13.17;;
2408;SDS011;8463;48.094;7.970;2022-12-11T12:47:15;17.93;;;12.60;;
2408;SDS011;8463;48.094;7.970;2022-12-11T12:49:46;21.40;;;11.10;;
2408;SDS011;8463;48.094;7.970;2022-12-11T12:52:22;19.13;;;12.00;;
2408;SDS011;8463;48.094;7.970;2022-12-11T12:54:54;22.80;;;13.37;;
2408;SDS011;8463;48.094;7.970;2022-12-11T12:57:47;17.67;;;13.20;;
2408;SDS011;8463;48.094;7.970;2022-12-11T13:00:28;27.43;;;14.97;;
2408;SDS011;8463;48.094;7.970;2022-12-11T13:02:54;17.90;;;11.30;;
2408;SDS011;8463;48.094;7.970;2022-12-11T13:05:26;23.33;;;13.90;;
2408;SDS011;8463;48.094;7.970;2022-12-11T13:08:02;23.23;;;13.77;;
2408;SDS011;8463;48.094;7.970;2022-12-11T13:10:33;22.33;;;12.43;;
2408;SDS011;8463;48.094;7.970;2022-12-11T13:13:02;19.70;;;13.70;;
2408;SDS011;8463;48.094;7.970;2022-12-11T13:20:55;17.27;;;11.00;;
2408;SDS011;8463;48.094;7.970;2022-12-11T13:23:33;22.70;;;11.53;;
2408;SDS011;8463;48.094;7.970;2022-12-11T13:26:00;26.33;;;14.63;;
2408;SDS011;8463;48.094;7.970;2022-12-11T13:28:29;21.63;;;13.47;;
2408;SDS011;8463;48.094;7.970;2022-12-11T13:33:46;25.07;;;14.70;;
2408;SDS011;8463;48.094;7.970;2022-12-11T13:38:54;17.63;;;12.57;;
2408;SDS011;8463;48.094;7.970;2022-12-11T13:41:24;17.93;;;13.10;;
2408;SDS011;8463;48.094;7.970;2022-12-11T13:43:52;18.93;;;13.60;;
2408;SDS011;8463;48.094;7.970;2022-12-11T13:46:20;19.77;;;12.45;;
2408;SDS011;8463;48.094;7.970;2022-12-11T13:48:54;17.30;;;11.45;;
2408;SDS011;8463;48.094;7.970;2022-12-11T13:51:25;19.47;;;12.30;;
2408;SDS011;8463;48.094;7.970;2022-12-11T13:54:05;21.43;;;12.77;;
2408;SDS011;8463;48.094;7.970;2022-12-11T13:56:31;20.57;;;12.47;;
2408;SDS011;8463;48.094;7.970;2022-12-11T13:58:56;25.00;;;13.60;;
2408;SDS011;8463;48.094;7.970;2022-12-11T14:01:23;19.00;;;12.07;;
2408;SDS011;8463;48.094;7.970;2022-12-11T14:03:54;16.43;;;11.27;;
2408;SDS011;8463;48.094;7.970;2022-12-11T14:06:23;17.77;;;11.30;;
2408;SDS011;8463;48.094;7.970;2022-12-11T14:08:52;17.10;;;11.50;;
2408;SDS011;8463;48.094;7.970;2022-12-11T14:11:21;19.83;;;11.63;;
2408;SDS011;8463;48.094;7.970;2022-12-11T14:13:51;18.67;;;12.50;;
2408;SDS011;8463;48.094;7.970;2022-12-11T14:16:22;22.27;;;12.77;;
2408;SDS011;8463;48.094;7.970;2022-12-11T14:18:49;21.73;;;12.47;;
2408;SDS011;8463;48.094;7.970;2022-12-11T14:21:17;15.43;;;11.17;;
2408;SDS011;8463;48.094;7.970;2022-12-11T14:23:49;19.43;;;12.40;;
2408;SDS011;8463;48.094;7.970;2022-12-11T14:26:21;21.70;;;12.70;;
2408;SDS011;8463;48.094;7.970;2022-12-11T14:28:47;23.07;;;12.50;;
2408;SDS011;8463;48.094;7.970;2022-12-11T14:31:14;21.70;;;13.60;;
2408;SDS011;8463;48.094;7.970;2022-12-11T14:33:44;17.70;;;12.37;;
2408;SDS011;8463;48.094;7.970;2022-12-11T14:36:13;23.53;;;13.83;;
2408;SDS011;8463;48.094;7.970;2022-12-11T14:38:45;25.53;;;15.30;;
2408;SDS011;8463;48.094;7.970;2022-12-11T14:41:25;20.80;;;14.40;;
2408;SDS011;8463;48.094;7.970;2022-12-11T14:43:59;22.53;;;14.07;;
2408;SDS011;8463;48.094;7.970;2022-12-11T14:46:36;21.73;;;14.27;;
2408;SDS011;8463;48.094;7.970;2022-12-11T14:49:11;20.90;;;13.60;;
2408;SDS011;8463;48.094;7.970;2022-12-11T14:51:45;22.27;;;15.67;;
2408;SDS011;8463;48.094;7.970;2022-12-11T14:54:34;19.47;;;11.00;;
2408;SDS011;8463;48.094;7.970;2022-12-11T14:57:00;26.73;;;15.30;;
2408;SDS011;8463;48.094;7.970;2022-12-11T14:59:27;23.30;;;15.90;;
2408;SDS011;8463;48.094;7.970;2022-12-11T15:02:01;21.40;;;15.03;;
2408;SDS011;8463;48.094;7.970;2022-12-11T15:04:42;17.63;;;12.13;;
2408;SDS011;8463;48.094;7.970;2022-12-11T15:07:18;22.30;;;12.57;;
2408;SDS011;8463;48.094;7.970;2022-12-11T15:09:46;22.40;;;14.40;;
2408;SDS011;8463;48.094;7.970;2022-12-11T15:12:12;21.63;;;12.80;;
2408;SDS011;8463;48.094;7.970;2022-12-11T15:14:41;18.27;;;12.50;;
2408;SDS011;8463;48.094;7.970;2022-12-11T15:17:14;20.37;;;13.17;;
2408;SDS011;8463;48.094;7.970;2022-12-11T15:19:40;17.83;;;12.63;;
2408;SDS011;8463;48.094;7.970;2022-12-11T15:22:13;19.43;;;12.00;;
2408;SDS011;8463;48.094;7.970;2022-12-11T15:24:41;18.90;;;10.93;;
2408;SDS011;8463;48.094;7.970;2022-12-11T15:29:53;21.43;;;13.17;;
2408;SDS011;8463;48.094;7.970;2022-12-11T15:32:19;18.03;;;11.90;;
2408;SDS011;8463;48.094;7.970;2022-12-11T15:37:32;22.60;;;15.33;;
2408;SDS011;8463;48.094;7.970;2022-12-11T15:40:02;26.10;;;14.02;;
2408;SDS011;8463;48.094;7.970;2022-12-11T15:45:02;20.07;;;12.70;;
2408;SDS011;8463;48.094;7.970;2022-12-11T15:47:30;19.48;;;14.05;;
2408;SDS011;8463;48.094;7.970;2022-12-11T15:49:57;23.77;;;14.17;;
2408;SDS011;8463;48.094;7.970;2022-12-11T15:52:32;25.80;;;15.80;;
2408;SDS011;8463;48.094;7.970;2022-12-11T15:54:58;23.80;;;15.23;;
2408;SDS011;8463;48.094;7.970;2022-12-11T15:57:24;24.07;;;16.43;;
2408;SDS011;8463;48.094;7.970;2022-12-11T15:59:50;29.23;;;16.43;;
2408;SDS011;8463;48.094;7.970;2022-12-11T16:02:18;20.77;;;14.23;;
2408;SDS011;8463;48.094;7.970;2022-12-11T16:04:44;19.20;;;14.80;;
2408;SDS011;8463;48.094;7.970;2022-12-11T16:07:17;23.23;;;14.90;;
2408;SDS011;8463;48.094;7.970;2022-12-11T16:09:44;24.97;;;15.50;;
2408;SDS011;8463;48.094;7.970;2022-12-11T16:12:11;17.00;;;13.00;;
2408;SDS011;8463;48.094;7.970;2022-12-11T16:14:38;21.27;;;14.50;;
2408;SDS011;8463;48.094;7.970;2022-12-11T16:17:06;24.07;;;15.87;;
2408;SDS011;8463;48.094;7.970;2022-12-11T16:19:33;26.30;;;15.43;;
2408;SDS011;8463;48.094;7.970;2022-12-11T16:21:59;31.50;;;19.60;;
2408;SDS011;8463;48.094;7.970;2022-12-11T16:24:25;33.77;;;18.30;;
2408;SDS011;8463;48.094;7.970;2022-12-11T16:26:51;24.73;;;17.20;;
2408;SDS011;8463;48.094;7.970;2022-12-11T16:29:16;27.50;;;16.90;;
2408;SDS011;8463;48.094;7.970;2022-12-11T16:31:42;28.50;;;16.97;;
2408;SDS011;8463;48.094;7.970;2022-12-11T16:34:08;21.97;;;13.90;;
2408;SDS011;8463;48.094;7.970;2022-12-11T16:36:34;25.27;;;13.03;;
2408;SDS011;8463;48.094;7.970;2022-12-11T16:39:00;26.83;;;14.87;;